Time;durP1;ratioP1;P1;durP2;ratioP2;P2;SDS_P1;SDS_P2;PMS_P1;PMS_P2;Temp;Humidity;BMP_temperature;BMP_pressure;BME280_temperature;BME280_humidity;BME280_pressure;Samples;Min_cycle;Max_cycle;Signal;HPM_P1;HPM_P2
2024/03/11 00:01:01;;;;;;;4.72;2.30;;;;;;;0.73;100.00;101462.91;5023329;28;20124;-78
2024/03/11 00:03:28;;;;;;;3.58;1.67;;;;;;;0.59;100.00;101440.13;5040557;28;20029;-76
2024/03/11 00:05:53;;;;;;;3.65;1.90;;;;;;;0.75;100.00;101468.91;5039854;28;20025;-76
2024/03/11 00:08:21;;;;;;;4.03;2.10;;;;;;;0.68;100.00;101457.09;5039768;28;20044;-76
2024/03/11 00:10:48;;;;;;;3.15;2.20;;;;;;;0.65;100.00;101438.81;5023424;28;20028;-77
2024/03/11 00:13:16;;;;;;;2.67;2.05;;;;;;;0.78;100.00;101475.78;5023702;28;20033;-76
2024/03/11 00:15:45;;;;;;;3.42;2.20;;;;;;;0.54;100.00;101436.16;5022839;28;20029;-76
2024/03/11 00:18:12;;;;;;;6.07;2.05;;;;;;;0.79;100.00;101472.16;5040665;28;20033;-76
2024/03/11 00:20:38;;;;;;;3.55;2.25;;;;;;;0.78;100.00;101465.19;5023267;28;20101;-76
2024/03/11 00:23:03;;;;;;;3.90;2.20;;;;;;;0.56;100.00;101434.22;5040153;28;20179;-77
2024/03/11 00:25:29;;;;;;;4.03;2.03;;;;;;;0.75;100.00;101474.22;5039121;28;20028;-78
2024/03/11 00:27:57;;;;;;;2.85;2.10;;;;;;;0.76;100.00;101469.75;5039021;28;20476;-75
2024/03/11 00:30:23;;;;;;;2.88;1.60;;;;;;;0.76;100.00;101481.19;5039038;28;20037;-77
2024/03/11 00:32:52;;;;;;;4.03;2.25;;;;;;;0.55;100.00;101438.69;5023296;28;20036;-76
2024/03/11 00:35:19;;;;;;;5.45;2.08;;;;;;;0.73;100.00;101462.91;5039127;28;20120;-76
2024/03/11 00:37:45;;;;;;;3.03;1.90;;;;;;;0.76;100.00;101467.94;5039385;28;20037;-78
2024/03/11 00:40:12;;;;;;;4.50;2.08;;;;;;;0.64;100.00;101453.03;5039674;28;20037;-76
2024/03/11 00:42:40;;;;;;;3.45;2.03;;;;;;;0.76;100.00;101467.94;5040329;28;20036;-76
2024/03/11 00:45:09;;;;;;;3.22;1.92;;;;;;;0.73;100.00;101473.50;5039337;28;20064;-76
2024/03/11 00:47:34;;;;;;;3.60;2.25;;;;;;;0.75;100.00;101471.56;5039118;28;20036;-76
2024/03/11 00:50:00;;;;;;;3.88;2.10;;;;;;;0.77;100.00;101469.66;5041033;28;20167;-77
2024/03/11 00:52:26;;;;;;;4.47;1.83;;;;;;;0.69;100.00;101464.09;5040135;28;20029;-76
2024/03/11 00:54:56;;;;;;;3.33;2.20;;;;;;;0.72;100.00;101455.06;5038671;28;20080;-76
2024/03/11 00:57:21;;;;;;;3.42;2.00;;;;;;;0.69;100.00;101456.97;5039119;28;20096;-76
2024/03/11 00:59:47;;;;;;;4.25;2.10;;;;;;;0.70;100.00;101452.53;5039644;28;20077;-77
2024/03/11 01:02:12;;;;;;;3.78;2.20;;;;;;;0.63;100.00;101451.31;5039472;28;20175;-76
2024/03/11 01:04:38;;;;;;;4.85;2.22;;;;;;;0.68;100.00;101449.16;5007137;28;20045;-76
2024/03/11 01:07:08;;;;;;;2.75;2.00;;;;;;;0.68;100.00;101451.81;5039908;28;20512;-76
2024/03/11 01:09:33;;;;;;;5.82;2.20;;;;;;;0.70;100.00;101453.38;5006529;28;20032;-77
2024/03/11 01:11:59;;;;;;;4.38;2.67;;;;;;;0.68;100.00;101447.34;5006826;28;20403;-76
2024/03/11 01:14:25;;;;;;;4.18;2.22;;;;;;;0.40;100.00;101403.66;5023883;28;20123;-76
2024/03/11 01:16:51;;;;;;;3.92;2.28;;;;;;;0.60;100.00;101428.59;5041053;28;20029;-77
2024/03/11 01:19:20;;;;;;;3.03;2.20;;;;;;;0.26;100.00;101380.03;5039115;28;20036;-76
2024/03/11 01:21:48;;;;;;;4.72;2.10;;;;;;;0.58;100.00;101435.78;5039624;28;20022;-77
2024/03/11 01:24:16;;;;;;;4.38;2.15;;;;;;;0.52;100.00;101435.41;5039715;28;20089;-76
2024/03/11 01:26:44;;;;;;;4.63;2.40;;;;;;;0.09;100.00;101354.03;5023613;28;20030;-76
2024/03/11 01:29:09;;;;;;;4.53;2.35;;;;;;;0.57;100.00;101438.56;5023724;28;20255;-77
2024/03/11 01:31:35;;;;;;;3.50;2.10;;;;;;;0.57;100.00;101443.88;5023366;28;20084;-76
2024/03/11 01:34:00;;;;;;;3.47;2.05;;;;;;;0.38;100.00;101404.72;5039615;28;20060;-77
2024/03/11 01:36:25;;;;;;;3.75;2.20;;;;;;;0.53;100.00;101437.09;5040472;28;20028;-77
2024/03/11 01:38:51;;;;;;;3.47;2.40;;;;;;;0.49;100.00;101433.84;5040776;28;20353;-77
2024/03/11 01:41:18;;;;;;;4.75;2.30;;;;;;;0.53;100.00;101429.16;5041517;28;20094;-77
2024/03/11 01:43:45;;;;;;;3.40;2.15;;;;;;;0.52;100.00;101425.66;5041332;28;20030;-77
2024/03/11 01:46:11;;;;;;;4.70;2.40;;;;;;;0.45;100.00;101419.16;5041147;28;20013;-76
2024/03/11 01:48:37;;;;;;;3.17;2.03;;;;;;;0.50;100.00;101424.09;5042144;28;20034;-76
2024/03/11 01:51:04;;;;;;;3.13;2.42;;;;;;;0.50;100.00;101434.69;5040887;28;20040;-79
2024/03/11 01:53:30;;;;;;;2.78;1.90;;;;;;;0.50;100.00;101427.63;5040540;28;20030;-76
2024/03/11 01:55:56;;;;;;;5.88;2.10;;;;;;;0.34;100.00;101413.88;5041451;28;20022;-76
2024/03/11 01:58:25;;;;;;;2.55;1.95;;;;;;;0.45;100.00;101437.69;5039484;28;20041;-77
2024/03/11 02:00:51;;;;;;;3.10;1.90;;;;;;;0.43;100.00;101424.59;5040706;28;20041;-77
2024/03/11 02:03:16;;;;;;;3.72;2.38;;;;;;;0.35;100.00;101426.13;5040177;28;20021;-77
2024/03/11 02:05:42;;;;;;;3.58;2.15;;;;;;;0.34;100.00;101420.00;5040978;28;20029;-78
2024/03/11 02:08:09;;;;;;;4.22;2.22;;;;;;;0.37;100.00;101430.34;5024006;28;20042;-75
2024/03/11 02:10:36;;;;;;;4.57;2.30;;;;;;;0.41;100.00;101423.00;5040658;28;20033;-76
2024/03/11 02:13:02;;;;;;;3.80;2.20;;;;;;;0.40;100.00;101430.13;5027855;28;20029;-76
2024/03/11 02:15:28;;;;;;;4.18;2.15;;;;;;;0.19;100.00;101407.94;5044658;28;20472;-76
2024/03/11 02:17:54;;;;;;;2.70;2.00;;;;;;;0.36;100.00;101438.41;5044420;28;20025;-75
2024/03/11 02:20:21;;;;;;;3.75;2.38;;;;;;;0.39;100.00;101431.06;5044396;28;20040;-76
2024/03/11 02:22:47;;;;;;;3.70;2.17;;;;;;;0.37;100.00;101432.16;5042921;28;20027;-76
2024/03/11 02:25:18;;;;;;;3.05;1.75;;;;;;;0.34;100.00;101430.59;5043635;28;20021;-76
2024/03/11 02:27:46;;;;;;;3.58;2.20;;;;;;;0.38;100.00;101433.84;5043930;28;20056;-76
2024/03/11 02:30:12;;;;;;;5.20;1.95;;;;;;;0.20;100.00;101407.81;5045038;28;20064;-77
2024/03/11 02:32:39;;;;;;;2.95;1.90;;;;;;;0.17;100.00;101412.50;5045489;28;20089;-78
2024/03/11 02:35:05;;;;;;;3.65;2.30;;;;;;;0.29;100.00;101431.88;5045309;28;20017;-76
2024/03/11 02:37:31;;;;;;;4.07;2.17;;;;;;;0.27;100.00;101432.03;5044300;28;20068;-76
2024/03/11 02:39:57;;;;;;;7.28;2.50;;;;;;;0.18;100.00;101416.84;5043448;28;20052;-76
2024/03/11 02:42:25;;;;;;;3.83;2.40;;;;;;;0.17;100.00;101412.50;5026772;28;20030;-77
2024/03/11 02:44:51;;;;;;;5.97;2.55;;;;;;;0.20;100.00;101422.88;5044718;28;20020;-76
2024/03/11 02:47:16;;;;;;;4.70;2.22;;;;;;;0.13;100.00;101425.13;5044828;28;20112;-77
2024/03/11 02:49:41;;;;;;;3.97;2.33;;;;;;;-0.25;100.00;101362.72;5043479;28;20037;-76
2024/03/11 02:52:07;;;;;;;4.85;2.40;;;;;;;0.03;100.00;101408.25;5043663;28;20036;-77
2024/03/11 02:54:33;;;;;;;2.40;2.00;;;;;;;-0.21;100.00;101368.63;5026895;28;20131;-77
2024/03/11 02:56:58;;;;;;;3.65;2.42;;;;;;;-0.04;100.00;101399.94;5045168;28;20037;-76
2024/03/11 02:59:24;;;;;;;3.15;2.20;;;;;;;0.04;100.00;101417.88;5044987;28;20041;-75
2024/03/11 03:01:50;;;;;;;5.40;2.30;;;;;;;-0.05;100.00;101395.59;5043859;28;20072;-77
2024/03/11 03:04:19;;;;;;;5.95;2.80;;;;;;;0.02;100.00;101418.94;5027171;28;20037;-75
2024/03/11 03:06:45;;;;;;;3.50;2.20;;;;;;;-0.03;100.00;101406.91;5027156;28;20037;-77
2024/03/11 03:09:10;;;;;;;3.38;2.25;;;;;;;-0.27;100.00;101361.13;5043070;28;20147;-77
2024/03/11 03:11:37;;;;;;;3.20;2.25;;;;;;;-0.04;100.00;101399.94;5044531;28;20037;-77
2024/03/11 03:14:03;;;;;;;4.47;2.50;;;;;;;-0.03;100.00;101396.34;5044516;28;20029;-77
2024/03/11 03:16:28;;;;;;;3.33;2.20;;;;;;;-0.04;100.00;101413.16;5025922;28;20071;-76
2024/03/11 03:18:54;;;;;;;3.88;2.35;;;;;;;-0.02;100.00;101413.91;5043580;28;20041;-78
2024/03/11 03:21:21;;;;;;;3.08;2.15;;;;;;;-0.07;100.00;101412.53;5043464;28;20030;-77
2024/03/11 03:23:47;;;;;;;3.67;2.28;;;;;;;-0.36;100.00;101356.56;5044659;28;20155;-77
2024/03/11 03:26:12;;;;;;;4.55;2.45;;;;;;;-0.06;100.00;101408.97;5044589;28;20053;-78
2024/03/11 03:28:38;;;;;;;3.65;2.30;;;;;;;-0.25;100.00;101388.31;5026634;28;20025;-77
2024/03/11 03:31:04;;;;;;;3.33;2.30;;;;;;;-0.10;100.00;101411.00;5044168;28;20029;-76
2024/03/11 03:33:30;;;;;;;3.90;2.40;;;;;;;-0.12;100.00;101399.69;5044028;28;20029;-77
2024/03/11 03:35:59;;;;;;;5.40;2.80;;;;;;;-0.08;100.00;101402.94;5043732;28;20018;-77
2024/03/11 03:38:25;;;;;;;3.83;2.60;;;;;;;-0.09;100.00;101399.44;5027285;28;20040;-77
2024/03/11 03:40:51;;;;;;;7.88;2.80;;;;;;;-0.07;100.00;101397.50;5028678;28;20025;-77
2024/03/11 03:43:16;;;;;;;4.07;2.38;;;;;;;-0.14;100.00;101398.94;5026268;28;20033;-76
2024/03/11 03:45:42;;;;;;;3.03;2.40;;;;;;;-0.12;100.00;101404.13;5043271;28;20032;-79
2024/03/11 03:48:07;;;;;;;5.82;2.38;;;;;;;-0.13;100.00;101397.13;5033356;28;20057;-76
2024/03/11 03:50:33;;;;;;;5.35;2.58;;;;;;;-0.11;100.00;101397.88;5048457;28;20093;-78
2024/03/11 03:53:00;;;;;;;6.60;2.28;;;;;;;-0.12;100.00;101397.03;5026969;28;20559;-76
2024/03/11 03:55:29;;;;;;;5.10;2.47;;;;;;;-0.08;100.00;101403.75;5042635;28;20034;-78
2024/03/11 03:57:54;;;;;;;5.20;2.70;;;;;;;-0.11;100.00;101398.72;5042890;28;20041;-76
2024/03/11 04:00:20;;;;;;;4.82;2.50;;;;;;;-0.12;100.00;101390.91;5043232;28;20565;-76
2024/03/11 04:02:50;;;;;;;3.58;2.47;;;;;;;-0.11;100.00;101393.41;5043172;28;20025;-76
2024/03/11 04:05:19;;;;;;;3.95;2.30;;;;;;;-0.24;100.00;101368.84;5024853;28;20477;-78
2024/03/11 04:07:45;;;;;;;4.22;2.67;;;;;;;-0.11;100.00;101398.72;5043633;28;20028;-76
2024/03/11 04:10:18;;;;;;;4.07;2.60;;;;;;;-0.12;100.00;101388.25;5025303;28;20399;-77
2024/03/11 04:12:48;;;;;;;3.40;2.40;;;;;;;-0.17;100.00;101377.16;5044442;28;20029;-78
2024/03/11 04:15:21;;;;;;;3.50;2.55;;;;;;;-0.13;100.00;101392.72;5041592;28;20112;-77
2024/03/11 04:17:53;;;;;;;4.80;2.40;;;;;;;-0.12;100.00;101390.91;5042500;28;20033;-79
2024/03/11 04:20:22;;;;;;;4.30;2.55;;;;;;;-0.13;100.00;101387.41;5047682;28;20021;-78
2024/03/11 04:22:49;;;;;;;4.07;2.70;;;;;;;-0.37;100.00;101349.56;5050464;28;20025;-77
2024/03/11 04:25:41;;;;;;;6.53;2.60;;;;;;;-0.16;100.00;101373.59;5032498;28;20029;-78
2024/03/11 04:28:08;;;;;;;4.35;2.33;;;;;;;-0.14;100.00;101367.19;5049588;28;20025;-78
2024/03/11 04:30:37;;;;;;;8.82;2.92;;;;;;;-0.17;100.00;101346.25;5049662;28;20045;-78
2024/03/11 04:33:03;;;;;;;4.07;2.05;;;;;;;-0.14;100.00;101361.91;5049109;28;20083;-77
2024/03/11 04:35:30;;;;;;;4.90;2.70;;;;;;;-0.11;100.00;101356.38;5050008;28;20034;-77
2024/03/11 04:38:17;;;;;;;7.10;2.78;;;;;;;-0.10;100.00;101347.50;5050406;28;20083;-76
2024/03/11 04:40:44;;;;;;;4.05;2.53;;;;;;;-0.06;100.00;101348.94;5049798;28;20021;-77
2024/03/11 04:43:10;;;;;;;4.70;2.63;;;;;;;-0.37;100.00;101291.41;5050296;28;20026;-79
2024/03/11 04:45:39;;;;;;;4.57;2.50;;;;;;;-0.07;100.00;101359.63;5042712;28;20040;-79
2024/03/11 04:48:07;;;;;;;5.65;2.90;;;;;;;-0.06;100.00;101359.53;5041109;28;20025;-76
2024/03/11 04:50:34;;;;;;;6.32;2.78;;;;;;;-0.06;100.00;101367.47;5039466;28;20060;-78
2024/03/11 04:53:02;;;;;;;5.07;3.00;;;;;;;-0.16;100.00;101350.63;5039797;28;20017;-77
2024/03/11 04:55:28;;;;;;;4.25;2.35;;;;;;;-0.06;100.00;101354.25;5040950;28;20014;-77
2024/03/11 04:57:56;;;;;;;4.65;2.50;;;;;;;-0.01;100.00;101361.81;5040141;28;20037;-76
2024/03/11 05:00:28;;;;;;;4.70;2.78;;;;;;;-0.01;100.00;101367.09;5041844;28;20129;-76
2024/03/11 05:03:00;;;;;;;4.45;2.85;;;;;;;-0.26;100.00;101325.81;5041398;28;20029;-76
2024/03/11 05:05:27;;;;;;;4.60;2.25;;;;;;;-0.28;100.00;101325.09;5041161;28;20034;-76
2024/03/11 05:07:53;;;;;;;7.55;2.97;;;;;;;-0.05;100.00;101363.03;5041622;28;20032;-77
2024/03/11 05:10:19;;;;;;;5.60;2.90;;;;;;;-0.09;100.00;101349.19;5041626;28;20032;-82
2024/03/11 05:12:47;;;;;;;10.15;2.85;;;;;;;-0.06;100.00;101348.94;5026667;28;20002;-80
2024/03/11 05:15:13;;;;;;;6.53;3.13;;;;;;;-0.09;100.00;101348.34;5042823;28;20108;-78
2024/03/11 05:17:39;;;;;;;4.78;2.78;;;;;;;-0.06;100.00;101333.09;5041815;28;20033;-79
2024/03/11 05:20:14;;;;;;;5.68;2.63;;;;;;;-0.10;100.00;101334.28;5038996;28;20172;-72
2024/03/11 05:22:41;;;;;;;;;;;;;;;-0.19;100.00;101331.50;5056670;28;20029;-75
2024/03/11 05:25:14;;;;;;;6.32;2.90;;;;;;;-0.22;100.00;101335.22;5073573;28;19925;-72
2024/03/11 05:27:40;;;;;;;4.00;2.70;;;;;;;-0.36;100.00;101306.31;5056225;28;20037;-73
2024/03/11 05:30:10;;;;;;;4.63;2.72;;;;;;;-0.26;100.00;101323.19;5058017;28;20047;-75
2024/03/11 05:32:35;;;;;;;6.00;2.60;;;;;;;-0.29;100.00;101311.03;5058533;28;20041;-76
2024/03/11 05:35:01;;;;;;;4.97;2.67;;;;;;;-0.29;100.00;101303.09;5057346;28;20399;-74
2024/03/11 05:37:27;;;;;;;6.57;2.70;;;;;;;-0.29;100.00;101318.13;5060476;28;20518;-76
2024/03/11 05:39:55;;;;;;;10.07;3.17;;;;;;;-0.33;100.00;101325.44;5058955;28;20037;-75
2024/03/11 05:42:22;;;;;;;4.53;2.70;;;;;;;-0.42;100.00;101310.28;5058349;28;20021;-78
2024/03/11 05:44:48;;;;;;;5.10;2.80;;;;;;;-0.38;100.00;101322.28;5059716;28;20036;-79
2024/03/11 05:47:14;;;;;;;4.63;2.58;;;;;;;-0.42;100.00;101328.78;5062256;28;20033;-78
2024/03/11 05:49:41;;;;;;;7.13;2.67;;;;;;;-0.41;100.00;101319.88;5063243;28;20133;-76
2024/03/11 05:52:08;;;;;;;4.55;2.58;;;;;;;-0.44;100.00;101329.84;5064429;28;20082;-76
2024/03/11 05:54:34;;;;;;;7.30;2.78;;;;;;;-0.39;100.00;101325.06;5063224;28;20032;-77
2024/03/11 05:57:04;;;;;;;4.22;2.50;;;;;;;-0.38;100.00;101345.25;5063474;28;20033;-76
2024/03/11 05:59:31;;;;;;;6.35;2.90;;;;;;;-0.61;100.00;101317.88;5063663;28;20148;-76
2024/03/11 06:01:59;;;;;;;8.40;3.40;;;;;;;-0.35;100.00;101353.78;5062567;28;20032;-77
2024/03/11 06:04:25;;;;;;;7.97;3.78;;;;;;;-0.37;100.00;101366.28;5061774;28;20029;-78
2024/03/11 06:06:52;;;;;;;4.88;2.85;;;;;;;-0.36;100.00;101352.13;5061036;28;20106;-76
2024/03/11 06:09:17;;;;;;;4.80;2.80;;;;;;;-0.37;100.00;101358.34;5062347;28;20051;-80
2024/03/11 06:11:44;;;;;;;5.32;3.05;;;;;;;-0.39;100.00;101340.94;5063213;28;20384;-79
2024/03/11 06:14:12;;;;;;;6.03;2.67;;;;;;;-0.41;100.00;101341.03;5060972;28;20117;-75
2024/03/11 06:16:41;;;;;;;8.27;3.05;;;;;;;-0.37;100.00;101365.44;5061067;28;20081;-75
2024/03/11 06:19:08;;;;;;;3.65;2.78;;;;;;;-0.36;100.00;101332.78;5043881;28;20029;-76
2024/03/11 06:21:35;;;;;;;7.55;3.38;;;;;;;-0.33;100.00;101353.66;5060146;28;20048;-77
2024/03/11 06:24:00;;;;;;;4.90;2.60;;;;;;;-0.37;100.00;101358.34;5045569;28;20048;-76
2024/03/11 06:26:31;;;;;;;4.97;2.95;;;;;;;-0.41;100.00;101343.66;5059182;28;20025;-77
2024/03/11 06:28:56;;;;;;;4.30;2.40;;;;;;;-0.50;100.00;101312.63;5043569;28;20432;-77
2024/03/11 06:31:23;;;;;;;7.18;3.05;;;;;;;-0.24;100.00;101351.16;5027361;28;20108;-76
2024/03/11 06:33:50;;;;;;;6.30;2.95;;;;;;;-0.49;100.00;101309.06;5042567;28;20120;-78
2024/03/11 06:36:16;;;;;;;5.13;3.13;;;;;;;-0.25;100.00;101335.44;5042289;28;20033;-76
2024/03/11 06:38:44;;;;;;;6.18;2.88;;;;;;;-0.21;100.00;101336.03;5039768;28;20033;-77
2024/03/11 06:41:09;;;;;;;6.88;4.10;;;;;;;-0.10;100.00;101355.44;5024842;28;20417;-76
2024/03/11 06:43:35;;;;;;;5.47;3.00;;;;;;;-0.44;100.00;101291.03;5026069;28;20457;-76
2024/03/11 06:46:01;;;;;;;6.85;2.75;;;;;;;-0.14;100.00;101353.97;5050687;28;20053;-75
2024/03/11 06:48:27;;;;;;;5.65;2.63;;;;;;;-0.09;100.00;101343.91;5051073;28;20025;-77
2024/03/11 06:50:52;;;;;;;4.20;2.78;;;;;;;-0.09;100.00;101337.75;5035294;28;20025;-75
2024/03/11 06:53:19;;;;;;;9.18;3.70;;;;;;;0.04;100.00;101349.09;5052531;28;20088;-75
2024/03/11 06:55:45;;;;;;;10.80;3.25;;;;;;;0.09;100.00;101343.44;5051628;28;20025;-76
2024/03/11 06:58:11;;;;;;;6.60;3.17;;;;;;;0.14;100.00;101347.44;5047571;28;20025;-76
2024/03/11 07:00:39;;;;;;;5.55;3.13;;;;;;;0.12;100.00;101335.25;5047538;28;20029;-76
2024/03/11 07:03:04;;;;;;;5.55;2.53;;;;;;;0.17;100.00;101349.84;5031243;28;20037;-76
2024/03/11 07:05:30;;;;;;;6.13;2.80;;;;;;;0.12;100.00;101344.03;5033691;28;20017;-77
2024/03/11 07:07:56;;;;;;;5.25;2.85;;;;;;;0.24;100.00;101350.22;5032362;28;20515;-77
2024/03/11 07:10:22;;;;;;;4.78;2.03;;;;;;;0.32;100.00;101376.91;5042203;28;20500;-76
2024/03/11 07:12:47;;;;;;;3.97;2.45;;;;;;;0.39;100.00;101358.75;5044789;28;20041;-77
2024/03/11 07:15:13;;;;;;;5.80;2.78;;;;;;;0.36;100.00;101348.41;5043835;28;20096;-77
2024/03/11 07:17:39;;;;;;;6.35;3.22;;;;;;;0.38;100.00;101326.13;5042769;28;20055;-76
2024/03/11 07:20:08;;;;;;;7.32;2.88;;;;;;;0.44;100.00;101335.41;5042208;28;20081;-77
2024/03/11 07:22:38;;;;;;;5.97;2.75;;;;;;;0.67;100.00;101341.53;5042504;28;20021;-77
2024/03/11 07:25:09;;;;;;;5.10;2.67;;;;;;;0.71;100.00;101348.28;5024817;28;20053;-77
2024/03/11 07:27:37;;;;;;;5.47;2.80;;;;;;;0.77;100.00;101347.78;5042158;28;20022;-76
2024/03/11 07:30:07;;;;;;;4.88;2.38;;;;;;;0.78;100.00;101333.56;5041634;28;20033;-76
2024/03/11 07:32:33;;;;;;;4.30;2.20;;;;;;;0.89;100.00;101338.00;5025085;28;20377;-77
2024/03/11 07:34:59;;;;;;;6.32;2.85;;;;;;;1.00;100.00;101334.50;5042301;28;20029;-76
2024/03/11 07:37:25;;;;;;;5.07;2.63;;;;;;;0.93;100.00;101321.75;5041335;28;20036;-76
2024/03/11 07:39:54;;;;;;;5.75;2.88;;;;;;;1.02;100.00;101338.69;5040674;28;20489;-76
2024/03/11 07:42:22;;;;;;;6.05;2.50;;;;;;;1.05;100.00;101311.13;5023753;28;20067;-76
2024/03/11 07:44:51;;;;;;;7.43;2.25;;;;;;;1.11;100.00;101327.34;5041776;28;20463;-76
2024/03/11 07:47:17;;;;;;;7.13;2.60;;;;;;;1.26;100.00;101327.94;5025551;28;20037;-76
2024/03/11 07:49:43;;;;;;;4.25;2.13;;;;;;;1.15;100.00;101320.84;5025673;28;20033;-76
2024/03/11 07:52:09;;;;;;;4.72;2.28;;;;;;;0.87;100.00;101258.66;5042523;28;20021;-76
2024/03/11 07:54:35;;;;;;;6.22;2.38;;;;;;;1.19;100.00;101310.81;5043012;28;20033;-76
2024/03/11 07:57:00;;;;;;;5.10;2.35;;;;;;;1.41;100.00;101324.00;5043072;28;20036;-76
2024/03/11 07:59:26;;;;;;;4.25;2.22;;;;;;;1.53;100.00;101324.81;5043131;28;20060;-77
2024/03/11 08:01:51;;;;;;;3.38;2.30;;;;;;;1.54;100.00;101309.72;5026122;28;20610;-77
2024/03/11 08:04:17;;;;;;;3.90;1.90;;;;;;;1.52;100.00;101317.78;5041848;28;20044;-77
2024/03/11 08:06:42;;;;;;;5.20;1.88;;;;;;;1.52;100.00;101274.53;5043014;28;20033;-77
2024/03/11 08:09:09;;;;;;;4.38;2.20;;;;;;;1.32;100.00;101244.38;5041660;28;20036;-77
2024/03/11 08:11:35;;;;;;;5.55;2.33;;;;;;;1.72;100.00;101300.22;5025511;28;20025;-77
2024/03/11 08:14:08;;;;;;;4.90;2.40;;;;;;;1.84;100.00;101291.22;5041003;28;20025;-77
2024/03/11 08:16:33;;;;;;;5.95;2.33;;;;;;;1.97;100.00;101312.25;5041906;28;20059;-76
2024/03/11 08:19:01;;;;;;;8.10;2.17;;;;;;;1.87;100.00;101284.81;5040704;28;20033;-76
2024/03/11 08:21:27;;;;;;;4.57;2.15;;;;;;;1.64;100.00;101263.72;5024946;28;20025;-76
2024/03/11 08:23:54;;;;;;;5.07;2.28;;;;;;;1.77;100.00;101290.06;5040711;28;20110;-76
2024/03/11 08:26:19;;;;;;;4.53;2.40;;;;;;;2.15;100.00;101315.13;5042243;28;20029;-77
2024/03/11 08:28:45;;;;;;;3.63;1.92;;;;;;;2.15;100.00;101295.72;5041558;28;20078;-76
2024/03/11 08:31:11;;;;;;;4.22;2.20;;;;;;;2.36;100.00;101328.38;5024882;28;20033;-77
2024/03/11 08:33:37;;;;;;;4.28;2.10;;;;;;;2.34;100.00;101331.16;5040146;28;20039;-75
2024/03/11 08:36:06;;;;;;;5.00;2.10;;;;;;;2.37;100.00;101337.19;5023187;28;20029;-76
2024/03/11 08:38:35;;;;;;;4.15;2.03;;;;;;;2.46;100.00;101328.44;5023026;28;20025;-76
2024/03/11 08:41:05;;;;;;;4.53;2.38;;;;;;;2.61;100.00;101321.75;5040376;28;20029;-76
2024/03/11 08:43:31;;;;;;;5.40;2.80;;;;;;;2.67;100.00;101331.84;5039559;28;20026;-75
2024/03/11 08:45:57;;;;;;;5.03;2.33;;;;;;;2.68;100.00;101340.66;5039019;28;20029;-76
2024/03/11 08:48:24;;;;;;;2.83;1.83;;;;;;;2.54;100.00;101320.63;5023696;28;20040;-76
2024/03/11 08:50:49;;;;;;;6.10;2.58;;;;;;;2.71;100.00;101343.88;5041332;28;20022;-76
2024/03/11 08:53:15;;;;;;;5.00;2.10;;;;;;;2.61;100.00;101300.50;5039973;28;20030;-76
2024/03/11 08:55:42;;;;;;;5.15;1.83;;;;;;;2.80;100.00;101316.50;5022928;28;20033;-76
2024/03/11 08:58:09;;;;;;;4.90;2.38;;;;;;;2.75;100.00;101325.88;5041337;28;20075;-75
2024/03/11 09:00:36;;;;;;;8.80;2.42;;;;;;;2.91;100.00;101302.25;5039394;28;20025;-76
2024/03/11 09:03:05;;;;;;;6.38;2.63;;;;;;;2.92;100.00;101329.72;5039761;28;20056;-76
2024/03/11 09:05:34;;;;;;;6.05;2.42;;;;;;;2.92;100.00;101325.22;5026632;28;20044;-76
2024/03/11 09:08:03;;;;;;;6.30;2.40;;;;;;;2.98;100.00;101314.06;5033383;28;20057;-76
2024/03/11 09:10:28;;;;;;;9.10;2.40;;;;;;;3.03;100.00;101322.44;5048366;28;20044;-76
2024/03/11 09:12:54;;;;;;;5.90;2.92;;;;;;;3.08;100.00;101319.38;5058348;28;20116;-76
2024/03/11 09:15:23;;;;;;;5.50;2.33;;;;;;;2.93;100.00;101299.47;5067865;28;20518;-76
2024/03/11 09:17:50;;;;;;;5.22;2.70;;;;;;;2.97;100.00;101322.16;5052437;28;20388;-77
2024/03/11 09:20:16;;;;;;;4.45;2.17;;;;;;;3.22;100.00;101321.63;5050145;28;20009;-76
2024/03/11 09:22:45;;;;;;;5.15;2.15;;;;;;;3.38;100.00;101320.22;5070064;28;20043;-76
2024/03/11 09:25:22;;;;;;;7.03;2.45;;;;;;;3.27;100.00;101291.94;5069373;28;20028;-76
2024/03/11 09:27:49;;;;;;;4.82;2.38;;;;;;;3.38;100.00;101294.50;5062212;28;20067;-76
2024/03/11 09:30:16;;;;;;;5.32;2.40;;;;;;;3.60;100.00;101319.09;5077745;28;20062;-76
2024/03/11 09:32:44;;;;;;;7.03;2.40;;;;;;;3.59;100.00;101304.97;5060953;28;20033;-77
2024/03/11 09:35:12;;;;;;;4.88;2.28;;;;;;;3.56;100.00;101299.09;5060749;28;20048;-76
2024/03/11 09:37:37;;;;;;;5.05;2.33;;;;;;;3.74;100.00;101316.88;5061078;28;20024;-76
2024/03/11 09:40:09;;;;;;;4.93;2.40;;;;;;;3.78;100.00;101305.94;5044706;28;20040;-76
2024/03/11 09:42:36;;;;;;;8.00;2.30;;;;;;;3.78;100.00;101300.63;5062932;28;20512;-76
2024/03/11 09:45:06;;;;;;;6.35;2.83;;;;;;;3.76;100.00;101298.91;5063345;28;20025;-77
2024/03/11 09:47:33;;;;;;;6.13;2.42;;;;;;;3.71;100.00;101274.56;5062827;28;20044;-76
2024/03/11 09:50:00;;;;;;;4.32;2.58;;;;;;;3.91;100.00;101286.00;5045431;28;20060;-76
2024/03/11 09:52:29;;;;;;;5.57;2.50;;;;;;;3.96;100.00;101299.72;5062577;28;20028;-76
2024/03/11 09:54:54;;;;;;;6.53;2.50;;;;;;;4.07;100.00;101308.53;5078707;28;20052;-77
2024/03/11 09:57:25;;;;;;;4.93;2.50;;;;;;;4.01;100.00;101275.34;5063290;28;20029;-77
2024/03/11 09:59:54;;;;;;;4.53;2.30;;;;;;;4.41;100.00;101316.84;5078578;28;20056;-76
2024/03/11 10:02:23;;;;;;;6.20;2.55;;;;;;;4.39;100.00;101310.81;5061859;28;20107;-76
2024/03/11 10:04:53;;;;;;;4.90;2.55;;;;;;;4.35;100.00;101298.75;5063243;28;20028;-77
2024/03/11 10:07:19;;;;;;;5.97;2.45;;;;;;;4.37;100.00;101297.63;5063052;28;20106;-76
2024/03/11 10:09:45;;;;;;;3.53;1.98;;;;;;;4.44;100.00;101313.88;5061413;28;20492;-77
2024/03/11 10:12:13;;;;;;;8.73;2.58;;;;;;;4.56;100.00;101317.19;5061384;28;20114;-76
2024/03/11 10:14:40;;;;;;;6.70;2.70;;;;;;;4.67;100.00;101311.69;5045506;28;20029;-77
2024/03/11 10:17:20;;;;;;;5.65;2.55;;;;;;;4.95;100.00;101320.47;5077721;28;20519;-77
2024/03/11 10:20:14;;;;;;;6.10;2.63;;;;;;;4.82;100.00;101318.16;5062614;28;20017;-77
2024/03/11 10:22:43;;;;;;;4.40;2.63;;;;;;;4.92;100.00;101312.78;5047582;28;20114;-76
2024/03/11 10:25:13;;;;;;;5.28;2.47;;;;;;;4.86;100.00;101313.38;5060523;28;20108;-76
2024/03/11 10:27:43;;;;;;;7.97;2.97;;;;;;;4.78;100.00;101282.13;5067151;28;20531;-76
2024/03/11 10:30:23;;;;;;;5.57;2.60;;;;;;;4.56;100.00;101237.22;5066631;28;20021;-76
2024/03/11 10:32:56;;;;;;;4.55;2.50;;;;;;;5.15;100.00;101295.34;5068759;28;20033;-76
2024/03/11 10:35:26;;;;;;;5.50;3.22;;;;;;;5.27;100.00;101298.66;5065390;28;20079;-76
2024/03/11 10:38:07;;;;;;;4.10;2.08;;;;;;;5.26;100.00;101293.44;5060070;28;20510;-76
2024/03/11 10:40:33;;;;;;;4.70;2.33;;;;;;;5.44;100.00;101306.81;5057415;28;20091;-74
2024/03/11 10:43:18;;;;;;;3.83;2.50;;;;;;;5.55;100.00;101285.19;5032784;28;20033;-76
2024/03/11 10:45:44;;;;;;;4.45;2.55;;;;;;;5.51;100.00;101291.84;5051929;28;20079;-75
2024/03/11 10:48:09;;;;;;;3.13;2.30;;;;;;;5.53;100.00;101252.47;5048930;28;20029;-76
2024/03/11 10:50:35;;;;;;;9.05;3.03;;;;;;;5.78;100.00;101293.56;5051215;28;20025;-74
2024/03/11 10:53:05;;;;;;;4.85;2.47;;;;;;;5.91;100.00;101256.59;5050299;28;20033;-75
2024/03/11 10:55:33;;;;;;;4.30;2.50;;;;;;;5.63;100.00;101243.41;5034942;28;20030;-75
2024/03/11 10:58:03;;;;;;;8.82;3.05;;;;;;;5.95;100.00;101283.84;5041212;28;20033;-75
2024/03/11 11:00:35;;;;;;;5.95;2.63;;;;;;;5.96;100.00;101282.84;5038671;28;20065;-75
2024/03/11 11:03:08;;;;;;;7.35;2.60;;;;;;;5.94;100.00;101274.16;5053394;28;20037;-74
2024/03/11 11:06:00;;;;;;;4.82;2.42;;;;;;;6.00;100.00;101266.38;5044992;28;20438;-74
2024/03/11 11:08:30;;;;;;;6.40;2.90;;;;;;;5.91;100.00;101256.59;5042665;28;20380;-74
2024/03/11 11:10:58;;;;;;;7.68;2.85;;;;;;;5.85;100.00;101243.84;5046811;28;20029;-74
2024/03/11 11:13:25;;;;;;;6.68;3.20;;;;;;;6.07;100.00;101261.22;5058930;28;20493;-74
2024/03/11 11:15:51;;;;;;;4.28;2.38;;;;;;;6.22;100.00;101262.28;5057290;28;20396;-74
2024/03/11 11:18:18;;;;;;;5.30;2.47;;;;;;;6.19;100.00;101262.66;5058509;28;20039;-74
2024/03/11 11:20:47;;;;;;;4.63;2.72;;;;;;;6.30;100.00;101258.84;5047324;28;20024;-74
2024/03/11 11:23:23;;;;;;;4.53;2.70;;;;;;;6.31;100.00;101274.72;5050099;28;20029;-74